Regional Weather

 

KMKL - Jackson, TN, USA
Distance from station: WNW 50mi, 81km
Updated: Fri, Jan-19-2018 10:53am CST
Clear
Clear
 Wind from SW
Wind: SW 10 mph , 17 km/h
Temperature: 37°F , 3°C
Wind Chill: 30°F , -1°C
Dew Point: 19°F , -7°C
Humidity: 48%
Barometer: 30.29 inHg , 1025.7 hPa
Clouds: Clear
Visibility: 10 miles , 16 km
2018/01/19 16:53 KMKL 191653Z 22009KT 10SM CLR 03/M07 A3029 RMK AO2 SLP261 T00331072
KMEM - Memphis, TN, USA
Distance from station: W 108mi, 173km
Updated: Fri, Jan-19-2018 10:54am CST
Mostly cloudy
Mostly cloudy
 Wind from SSW
Wind: SSW 10 mph , 17 km/h, Gust: 17 mph , 28 km/h
Temperature: 41°F , 5°C
Wind Chill: 35°F , 2°C
Dew Point: 21°F , -6°C
Humidity: 45%
Barometer: 30.30 inHg , 1026.1 hPa
Clouds: Mostly cloudy
Visibility: 10 miles , 16 km
Cloud details: Mostly cloudy 4200 ft
2018/01/19 16:54 KMEM 191654Z 20009G15KT 10SM BKN042 05/M06 A3030 RMK AO2 SLP263 T00501061 $
 
KBNA - Nashville, TN, USA
Distance from station: NE 97mi, 157km
Updated: Fri, Jan-19-2018 10:53am CST
Few Clouds
Few Clouds
 Wind from SSW
Wind: SSW 8 mph , 13 km/h
Temperature: 39°F , 4°C
Wind Chill: 33°F , 1°C
Dew Point: 16°F , -9°C
Humidity: 39%
Barometer: 30.31 inHg , 1026.4 hPa
Clouds: Few Clouds
Visibility: 10 miles , 16 km
Cloud details: Few Clouds 25000 ft
2018/01/19 16:53 KBNA 191653Z 21007KT 10SM FEW250 04/M09 A3031 RMK AO2 SLP268 T00391089
KCKV - Clarksville, TN, USA
Distance from station: NNE 99mi, 159km
Updated: Fri, Jan-19-2018 10:52am CST
Clear
Clear
 Wind from SW
Wind: SW 12 mph , 19 km/h
Temperature: 36°F , 2°C
Wind Chill: 28°F , -2°C
Dew Point: 12°F , -11°C
Humidity: 38%
Barometer: 30.27 inHg , 1025.1 hPa
Clouds: Clear
Visibility: 10 miles , 16 km
2018/01/19 16:52 KCKV 191652Z AUTO 22010KT 10SM CLR 02/M11 A3027 RMK AO2 SLP256 T00171106
 
KPAH - Paducah, KY, USA
Distance from station: NNW 128mi, 205km
Updated: Fri, Jan-19-2018 10:53am CST
Clear
Clear
 Wind from SW
Wind: SW 10 mph , 17 km/h
Temperature: 34°F , 1°C
Wind Chill: 26°F , -3°C
Dew Point: 16°F , -9°C
Humidity: 48%
Barometer: 30.23 inHg , 1023.7 hPa
Clouds: Clear
Visibility: 10 miles , 16 km
2018/01/19 16:53 KPAH 191653Z 22009KT 10SM CLR 01/M09 A3023 RMK AO2 SLP241 T00061094
KCHA - Chattanooga, TN, USA
Distance from station: E 165mi, 265km
Updated: Fri, Jan-19-2018 10:53am CST
Clear
Clear
 Wind from calm
Wind: Calm
Temperature: 37°F , 3°C
Dew Point: 12°F , -11°C
Humidity: 35%
Barometer: 30.34 inHg , 1027.4 hPa
Clouds: Clear
Visibility: 10 miles , 16 km
2018/01/19 16:53 KCHA 191653Z 00000KT 10SM CLR 03/M11 A3034 RMK AO2 SLP279 T00281106 $
 
KTYS - Knoxville, TN, USA
Distance from station: E 234mi, 377km
Updated: Fri, Jan-19-2018 10:53am CST
Clear
Clear
 Wind from calm
Wind: Calm
Temperature: 34°F , 1°C
Dew Point: 19°F , -7°C
Humidity: 56%
Barometer: 30.32 inHg , 1026.8 hPa
Clouds: Clear
Visibility: 10 miles , 16 km
2018/01/19 16:53 KTYS 191653Z 00000KT 10SM CLR 01/M07 A3032 RMK AO2 SLP275 T00111072
KLIT - Little Rock, AR, USA
Distance from station: W 240mi, 386km
Updated: Fri, Jan-19-2018 10:53am CST
Overcast
Overcast
 Wind from SW
Wind: SW 7 mph , 11 km/h
Temperature: 39°F , 4°C
Wind Chill: 34°F , 1°C
Dew Point: 19°F , -7°C
Humidity: 45%
Barometer: 30.28 inHg , 1025.4 hPa
Clouds: Overcast
Visibility: 10 miles , 16 km
Cloud details: Few Clouds 2500 ft
Overcast 4200 ft
2018/01/19 16:53 KLIT 191653Z 23006KT 10SM FEW025 OVC042 04/M07 A3028 RMK AO2 SLP258 T00391067

Refresh Page for latest data.